Lulu Pass Weather Station

This weather station is located at 10020ft near Lulu Pass at the head of Fisher Creek. This data can be used with temperature and precipitation data from the Fisher Creek SNOTEL site. This data can be viewed directly on datagarrison.com

Elevation
10020ft
Jump to table bottom
Date Time Temperature
deg F
RH, % Wind Speed Wind Gust Wind Direction
02/08/23 20:00 5.0 89 26 41 NW - 313
02/08/23 19:00 5.2 89 18 26 NW - 302
02/08/23 18:00 5.1 89 21 31 NW - 306
02/08/23 17:00 5.2 90 23 33 NW - 310
02/08/23 16:00 6.9 90 19 26 NW - 305
02/08/23 15:00 6.5 90 25 36 NW - 306
02/08/23 14:00 6.0 90 25 36 NW - 310
02/08/23 13:00 6.5 90 26 35 NW - 312
02/08/23 12:00 6.7 90 26 35 NW - 305
02/08/23 11:00 9.0 91 12 24 W - 267
02/08/23 10:00 11.1 91 10 25 SW - 225
02/08/23 09:00 10.4 91 11 21 SW - 215
02/08/23 08:00 9.8 91 17 33 SW - 209
02/08/23 07:00 10.4 91 9 25 SW - 222
02/08/23 06:00 10.6 91 10 27 W - 256
02/08/23 05:00 11.2 91 14 28 SW - 227
02/08/23 04:00 11.7 92 20 34 SW - 212
02/08/23 03:00 12.1 92 16 34 SW - 216
02/08/23 02:00 11.6 91 9 20 W - 258
02/08/23 01:00 11.2 91 11 23 SW - 223
02/08/23 00:00 11.0 91 10 22 SW - 232
02/07/23 23:00 11.0 91 10 22 SW - 226
02/07/23 22:00 11.1 91 9 24 SW - 216
02/07/23 21:00 12.1 92 6 14 SW - 227
02/07/23 20:00 12.2 92 4 11 SW - 236
02/07/23 19:00 12.6 92 6 13 W - 272
02/07/23 18:00 13.5 92 7 13 W - 271
02/07/23 17:00 14.3 93 7 15 W - 258
02/07/23 16:00 15.7 93 9 18 W - 260
02/07/23 15:00 16.3 93 8 17 W - 272
02/07/23 14:00 16.0 93 15 21 NW - 310
02/07/23 13:00 15.6 93 15 21 NW - 302
02/07/23 12:00 15.7 93 14 19 NW - 307
02/07/23 11:00 15.4 93 10 17 NW - 298
02/07/23 10:00 14.0 92 14 23 NW - 293
02/07/23 09:00 13.3 92 17 26 NW - 295
02/07/23 08:00 13.0 92 16 26 NW - 313
02/07/23 07:00 12.4 92 16 26 NW - 317
02/07/23 06:00 12.4 92 15 25 NW - 300
02/07/23 05:00 12.8 92 14 24 W - 284
02/07/23 04:00 12.8 92 16 28 W - 282
02/07/23 03:00 12.8 92 11 23 W - 272
02/07/23 02:00 12.9 92 12 21 W - 279
02/07/23 01:00 13.1 92 10 19 W - 265
02/07/23 00:00 13.4 92 11 24 W - 268
02/06/23 23:00 13.6 92 11 24 W - 270
02/06/23 22:00 13.7 92 12 21 W - 281
02/06/23 21:00 13.2 92 13 25 W - 272
02/06/23 20:00 13.3 92 16 29 W - 278
02/06/23 19:00 13.1 92 14 22 W - 279